Time;durP1;ratioP1;P1;durP2;ratioP2;P2;SDS_P1;SDS_P2;PMS_P1;PMS_P2;Temp;Humidity;BMP_temperature;BMP_pressure;BME280_temperature;BME280_humidity;BME280_pressure;Samples;Min_cycle;Max_cycle;Signal;HPM_P1;HPM_P2
2021/10/06 00:00:24;;;;;;;;;;;;;;;21.65;47.45;95523.56;1053029;28;1185;-57
2021/10/06 00:00:55;;;;;;;;;;;;;;;21.65;47.38;95528.81;1052925;28;1256;-59
2021/10/06 00:01:25;;;;;;;;;;;;;;;21.65;47.55;95528.03;1046085;28;2030;-57
2021/10/06 00:01:56;;;;;;;;;;;;;;;21.64;47.62;95531.72;1051187;28;883;-57
2021/10/06 00:02:26;;;;;;;;;;;;;;;21.65;47.72;95535.94;1050822;28;1055;-57
2021/10/06 00:02:56;;;;;;;;;;;;;;;21.65;47.46;95535.94;1048663;28;1028;-58
2021/10/06 00:03:27;;;;;;;;;;;;;;;21.64;47.59;95535.16;1049598;28;1903;-59
2021/10/06 00:03:58;;;;;;;;;;;;;;;21.64;47.53;95539.66;1050829;28;930;-59
2021/10/06 00:04:28;;;;;;;;;;;;;;;21.64;47.67;95531.72;1052257;28;1927;-56
2021/10/06 00:04:58;;;;;;;;;;;;;;;21.63;47.82;95530.19;1052301;28;1087;-59
2021/10/06 00:05:29;;;;;;;;;;;;;;;21.63;47.76;95536.25;1051087;28;1733;-59
2021/10/06 00:05:59;;;;;;;;;;;;;;;21.62;47.60;95532.03;1051875;28;788;-59
2021/10/06 00:06:29;;;;;;;;;;;;;;;21.62;47.65;95539.16;1053098;28;1207;-58
2021/10/06 00:07:00;;;;;;;;;;;;;;;21.61;47.43;95538.38;1051739;28;1386;-56
2021/10/06 00:07:30;;;;;;;;;;;;;;;21.62;47.68;95539.94;1051534;28;1864;-59
2021/10/06 00:08:00;;;;;;;;;;;;;;;21.63;47.35;95540.72;1051791;28;1307;-58
2021/10/06 00:08:31;;;;;;;;;;;;;;;21.64;47.59;95542.28;1053233;28;2232;-59
2021/10/06 00:09:01;;;;;;;;;;;;;;;21.63;47.70;95533.59;1049166;28;1870;-59
2021/10/06 00:09:31;;;;;;;;;;;;;;;21.64;47.54;95537.78;1053347;28;787;-58
2021/10/06 00:10:03;;;;;;;;;;;;;;;21.64;47.59;95531.72;1052963;28;1087;-57
2021/10/06 00:10:33;;;;;;;;;;;;;;;21.63;47.82;95533.59;1050800;28;1466;-56
2021/10/06 00:11:04;;;;;;;;;;;;;;;21.64;47.71;95542.28;1047795;28;1505;-58
2021/10/06 00:11:34;;;;;;;;;;;;;;;21.63;47.76;95535.44;1048553;28;863;-59
2021/10/06 00:12:05;;;;;;;;;;;;;;;21.63;47.72;95541.53;1046691;28;1080;-58
2021/10/06 00:12:35;;;;;;;;;;;;;;;21.62;47.33;95545.22;1052462;28;756;-58
2021/10/06 00:13:06;;;;;;;;;;;;;;;21.63;47.79;95544.16;1052662;28;1059;-58
2021/10/06 00:13:36;;;;;;;;;;;;;;;21.62;47.47;95537.28;1051316;28;1856;-58
2021/10/06 00:14:09;;;;;;;;;;;;;;;21.61;47.70;95543.66;1052024;28;1799;-59
2021/10/06 00:14:39;;;;;;;;;;;;;;;21.63;47.77;95543.38;1049843;28;1416;-58
2021/10/06 00:15:10;;;;;;;;;;;;;;;21.61;47.48;95540.22;1050498;28;1043;-59
2021/10/06 00:15:44;;;;;;;;;;;;;;;21.62;47.50;95544.41;1048804;28;1268;-59
2021/10/06 00:16:15;;;;;;;;;;;;;;;21.62;47.77;95541.78;1051286;28;2205;-59
2021/10/06 00:16:46;;;;;;;;;;;;;;;21.62;47.68;95539.16;1049730;28;909;-59
2021/10/06 00:17:16;;;;;;;;;;;;;;;21.61;47.60;95546.28;1051370;28;1236;-58
2021/10/06 00:17:47;;;;;;;;;;;;;;;21.61;47.27;95543.66;1050774;28;1809;-58
2021/10/06 00:18:17;;;;;;;;;;;;;;;21.61;47.68;95542.88;1050641;28;1113;-57
2021/10/06 00:18:48;;;;;;;;;;;;;;;21.60;47.56;95546.56;1049346;28;1887;-56
2021/10/06 00:19:18;;;;;;;;;;;;;;;21.60;47.58;95555.25;1052678;28;1134;-59
2021/10/06 00:19:48;;;;;;;;;;;;;;;21.61;47.24;95553.41;1050514;28;1424;-58
2021/10/06 00:20:19;;;;;;;;;;;;;;;21.60;47.71;95551.84;1050136;28;1204;-57
2021/10/06 00:20:49;;;;;;;;;;;;;;;21.60;47.69;95557.09;1045724;28;1312;-57
2021/10/06 00:21:19;;;;;;;;;;;;;;;21.59;47.75;95556.34;1048498;28;1103;-56
2021/10/06 00:21:50;;;;;;;;;;;;;;;21.59;47.64;95555.56;1052476;28;1228;-57
2021/10/06 00:22:22;;;;;;;;;;;;;;;21.60;47.70;95551.84;1049060;28;1805;-59
2021/10/06 00:22:52;;;;;;;;;;;;;;;21.60;47.58;95549.19;1050347;28;1068;-59
2021/10/06 00:23:22;;;;;;;;;;;;;;;21.61;47.48;95558.69;1052279;28;1137;-59
2021/10/06 00:23:53;;;;;;;;;;;;;;;21.61;47.55;95550.78;1050119;28;2154;-55
2021/10/06 00:24:24;;;;;;;;;;;;;;;21.59;47.58;95553.72;1052455;28;1098;-59
2021/10/06 00:24:54;;;;;;;;;;;;;;;21.61;47.54;95558.69;1052757;28;1111;-58
2021/10/06 00:25:24;;;;;;;;;;;;;;;21.60;47.65;95557.09;1051183;28;1225;-56
2021/10/06 00:25:55;;;;;;;;;;;;;;;21.60;47.61;95563.19;1051043;28;1084;-59
2021/10/06 00:26:25;;;;;;;;;;;;;;;21.60;47.52;95557.09;1052863;28;1130;-57
2021/10/06 00:26:55;;;;;;;;;;;;;;;21.59;47.42;95564.25;1051381;28;1078;-58
2021/10/06 00:27:26;;;;;;;;;;;;;;;21.59;47.45;95563.47;1049267;28;1174;-57
2021/10/06 00:27:56;;;;;;;;;;;;;;;21.60;47.64;95562.38;1050659;28;1570;-58
2021/10/06 00:28:27;;;;;;;;;;;;;;;21.59;47.69;95561.63;1049377;28;1501;-59
2021/10/06 00:28:57;;;;;;;;;;;;;;;21.59;47.53;95555.56;1048224;28;1897;-59
2021/10/06 00:29:27;;;;;;;;;;;;;;;21.59;47.56;95560.84;1052392;28;1158;-58
2021/10/06 00:29:58;;;;;;;;;;;;;;;21.59;47.42;95560.84;1050618;28;1080;-59
2021/10/06 00:30:28;;;;;;;;;;;;;;;21.59;47.69;95558.97;1051399;28;1194;-58
2021/10/06 00:30:58;;;;;;;;;;;;;;;21.58;47.55;95562.69;1051389;28;1017;-58
2021/10/06 00:31:29;;;;;;;;;;;;;;;21.58;47.48;95557.41;1051139;28;1529;-58
2021/10/06 00:31:59;;;;;;;;;;;;;;;21.59;47.50;95558.19;1051353;28;1089;-59
2021/10/06 00:32:30;;;;;;;;;;;;;;;21.61;47.44;95563.97;1048199;28;1237;-59
2021/10/06 00:33:01;;;;;;;;;;;;;;;21.59;47.49;95560.84;1046901;28;840;-57
2021/10/06 00:33:31;;;;;;;;;;;;;;;21.59;47.48;95563.47;1048694;28;1073;-58
2021/10/06 00:34:02;;;;;;;;;;;;;;;21.59;47.51;95566.91;1044771;28;1877;-59
2021/10/06 00:34:32;;;;;;;;;;;;;;;21.59;47.62;95569.53;1052485;28;852;-57
2021/10/06 00:35:03;;;;;;;;;;;;;;;21.58;47.73;95575.06;1051853;28;1186;-59
2021/10/06 00:35:33;;;;;;;;;;;;;;;21.58;47.74;95567.16;1051403;28;1162;-58
2021/10/06 00:36:04;;;;;;;;;;;;;;;21.58;47.72;95569.78;1052149;28;1155;-58
2021/10/06 00:36:34;;;;;;;;;;;;;;;21.58;47.71;95569.78;1050003;28;1217;-59
2021/10/06 00:37:05;;;;;;;;;;;;;;;21.58;47.59;95570.59;1051950;28;1040;-57
2021/10/06 00:37:35;;;;;;;;;;;;;;;21.58;47.46;95575.88;1052833;28;788;-58
2021/10/06 00:38:05;;;;;;;;;;;;;;;21.58;47.72;95569.78;1051307;28;1315;-57
2021/10/06 00:38:38;;;;;;;;;;;;;;;21.58;47.75;95572.44;1052828;28;764;-59
2021/10/06 00:39:08;;;;;;;;;;;;;;;21.58;47.67;95569.78;1049394;28;2138;-59
2021/10/06 00:39:39;;;;;;;;;;;;;;;21.58;47.31;95575.06;1050660;28;1497;-56
2021/10/06 00:40:10;;;;;;;;;;;;;;;21.59;47.70;95574.03;1052574;28;1190;-57
2021/10/06 00:40:40;;;;;;;;;;;;;;;21.57;47.72;95574.31;1050757;28;1110;-59
2021/10/06 00:41:10;;;;;;;;;;;;;;;21.57;47.78;95576.16;1050491;28;1744;-58
2021/10/06 00:41:41;;;;;;;;;;;;;;;21.57;47.61;95578.78;1048845;28;1013;-59
2021/10/06 00:42:11;;;;;;;;;;;;;;;21.57;47.68;95576.16;1053031;28;1461;-58
2021/10/06 00:42:42;;;;;;;;;;;;;;;21.57;47.65;95579.59;1056228;28;1026;-57
2021/10/06 00:43:12;;;;;;;;;;;;;;;21.58;47.65;95577.72;1050972;28;1254;-59
2021/10/06 00:43:42;;;;;;;;;;;;;;;21.58;47.59;95580.34;1051595;28;1848;-58
2021/10/06 00:44:13;;;;;;;;;;;;;;;21.58;47.73;95580.34;1050914;28;1496;-59
2021/10/06 00:44:44;;;;;;;;;;;;;;;21.57;47.50;95582.22;1049070;28;1902;-58
2021/10/06 00:45:14;;;;;;;;;;;;;;;21.57;47.37;95584.06;1052427;28;1189;-59
2021/10/06 00:45:45;;;;;;;;;;;;;;;21.57;47.46;95589.34;1050308;28;1161;-59
2021/10/06 00:46:15;;;;;;;;;;;;;;;21.56;47.74;95588.56;1047151;28;1118;-59
2021/10/06 00:46:46;;;;;;;;;;;;;;;21.57;47.70;95589.34;1045093;28;1120;-59
2021/10/06 00:47:16;;;;;;;;;;;;;;;21.57;47.38;95599.91;1050516;28;1872;-58
2021/10/06 00:47:46;;;;;;;;;;;;;;;21.57;47.38;95595.41;1047705;28;1072;-54
2021/10/06 00:48:16;;;;;;;;;;;;;;;21.58;47.48;95590.91;1051124;28;1367;-56
2021/10/06 00:48:47;;;;;;;;;;;;;;;21.57;47.42;95594.63;1048531;28;2244;-55
2021/10/06 00:49:17;;;;;;;;;;;;;;;21.57;47.63;95597.25;1052800;28;1745;-59
2021/10/06 00:49:47;;;;;;;;;;;;;;;21.57;47.52;95595.41;1050004;28;1412;-57
2021/10/06 00:50:18;;;;;;;;;;;;;;;21.57;47.47;95597.25;1050801;28;1036;-57
2021/10/06 00:50:48;;;;;;;;;;;;;;;21.57;47.39;95603.31;1050038;28;1119;-59
2021/10/06 00:51:20;;;;;;;;;;;;;;;21.57;47.31;95598.03;1052443;28;1200;-58
2021/10/06 00:51:50;;;;;;;;;;;;;;;21.57;47.36;95602.53;1052676;28;1134;-56
2021/10/06 00:52:21;;;;;;;;;;;;;;;21.56;47.35;95604.38;1052826;28;1130;-58
2021/10/06 00:52:51;;;;;;;;;;;;;;;21.56;47.47;95599.09;1051898;28;1180;-55
2021/10/06 00:53:25;;;;;;;;;;;;;;;21.56;47.61;95603.59;1052434;28;1258;-58
2021/10/06 00:53:55;;;;;;;;;;;;;;;21.57;47.46;95605.16;1048686;28;2070;-54
2021/10/06 00:54:25;;;;;;;;;;;;;;;21.56;47.42;95596.47;1049922;28;1107;-58
2021/10/06 00:54:56;;;;;;;;;;;;;;;21.56;47.88;95598.31;1051224;28;1112;-59
2021/10/06 00:55:27;;;;;;;;;;;;;;;21.56;47.71;95598.31;1052823;28;1113;-54
2021/10/06 00:55:57;;;;;;;;;;;;;;;21.55;47.62;95602.03;1049995;28;1103;-59
2021/10/06 00:56:27;;;;;;;;;;;;;;;21.54;47.51;95595.97;1048989;28;1568;-57
2021/10/06 00:56:58;;;;;;;;;;;;;;;21.54;47.48;95600.44;1051397;28;1020;-56
2021/10/06 00:57:28;;;;;;;;;;;;;;;21.54;47.32;95598.59;1049398;28;1215;-59
2021/10/06 00:57:59;;;;;;;;;;;;;;;21.55;47.72;95594.13;1049703;28;1279;-56
2021/10/06 00:58:29;;;;;;;;;;;;;;;21.55;47.51;95602.81;1052890;28;1146;-59
2021/10/06 00:58:59;;;;;;;;;;;;;;;21.55;47.71;95602.03;1050067;28;2019;-59
2021/10/06 00:59:29;;;;;;;;;;;;;;;21.54;47.63;95603.88;1043230;28;1576;-59
2021/10/06 01:00:00;;;;;;;;;;;;;;;21.55;47.32;95602.03;1048432;28;1228;-58
2021/10/06 01:00:30;;;;;;;;;;;;;;;21.55;47.62;95600.19;1049816;28;1222;-59
2021/10/06 01:01:01;;;;;;;;;;;;;;;21.56;47.50;95603.59;1048538;28;1029;-59
2021/10/06 01:01:31;;;;;;;;;;;;;;;21.56;47.51;95608.84;1052332;28;1001;-56
2021/10/06 01:02:02;;;;;;;;;;;;;;;21.55;47.59;95599.38;1052329;28;1102;-57
2021/10/06 01:02:32;;;;;;;;;;;;;;;21.55;47.66;95604.66;1049942;28;1185;-57
2021/10/06 01:03:02;;;;;;;;;;;;;;;21.54;47.46;95606.50;1051634;28;942;-58
2021/10/06 01:03:33;;;;;;;;;;;;;;;21.54;47.62;95603.09;1052607;28;870;-58
2021/10/06 01:04:03;;;;;;;;;;;;;;;21.55;47.48;95604.66;1050485;28;1056;-56
2021/10/06 01:04:34;;;;;;;;;;;;;;;21.54;47.49;95605.72;1048682;28;2391;-58
2021/10/06 01:05:05;;;;;;;;;;;;;;;21.54;47.54;95606.50;1052098;28;1107;-59
2021/10/06 01:05:37;;;;;;;;;;;;;;;21.54;47.29;95606.50;1049226;28;1871;-55
2021/10/06 01:06:07;;;;;;;;;;;;;;;21.54;47.74;95606.50;1049970;28;1025;-56
2021/10/06 01:06:37;;;;;;;;;;;;;;;21.54;47.31;95611.00;1052643;28;807;-56
2021/10/06 01:07:08;;;;;;;;;;;;;;;21.55;47.40;95607.31;1052589;28;1072;-59
2021/10/06 01:07:38;;;;;;;;;;;;;;;21.55;47.73;95607.31;1048521;28;1261;-59
2021/10/06 01:08:09;;;;;;;;;;;;;;;21.54;47.60;95608.34;1052548;28;1295;-59
2021/10/06 01:08:53;;;;;;;;;;;;;;;21.54;47.42;95611.00;1052314;28;1070;-58
2021/10/06 01:09:28;;;;;;;;;;;;;;;21.55;47.79;95612.56;1048512;28;1331;-53
2021/10/06 01:10:00;;;;;;;;;;;;;;;21.54;47.34;95611.78;1046778;28;1785;-57
2021/10/06 01:10:31;;;;;;;;;;;;;;;21.55;47.43;95607.31;1045264;28;1589;-55
2021/10/06 01:11:01;;;;;;;;;;;;;;;21.54;47.32;95608.34;1048522;28;1033;-57
2021/10/06 01:11:32;;;;;;;;;;;;;;;21.55;47.29;95607.31;1048702;28;1168;-59
2021/10/06 01:12:05;;;;;;;;;;;;;;;21.54;47.61;95611.00;1051721;28;1026;-58
2021/10/06 01:12:56;;;;;;;;;;;;;;;21.54;47.61;95609.16;1048523;28;1208;-56
2021/10/06 01:13:42;;;;;;;;;;;;;;;21.54;47.67;95601.25;1048069;28;1087;-59
2021/10/06 01:14:19;;;;;;;;;;;;;;;21.54;47.45;95608.34;1041482;28;1671;-58
2021/10/06 01:14:51;;;;;;;;;;;;;;;21.54;47.29;95608.34;1037620;28;2185;-56
2021/10/06 01:15:21;;;;;;;;;;;;;;;21.53;47.53;95610.22;1040530;28;1091;-59
2021/10/06 01:15:52;;;;;;;;;;;;;;;21.55;47.33;95607.31;1040173;28;1108;-58
2021/10/06 01:16:23;;;;;;;;;;;;;;;21.53;47.75;95609.44;1035210;28;2005;-59
2021/10/06 01:16:54;;;;;;;;;;;;;;;21.53;47.30;95615.50;1040279;28;1517;-59
2021/10/06 01:17:24;;;;;;;;;;;;;;;21.53;47.64;95612.88;1044463;28;1245;-59
2021/10/06 01:17:59;;;;;;;;;;;;;;;21.54;47.34;95611.78;1041524;28;1399;-57
2021/10/06 01:18:33;;;;;;;;;;;;;;;21.53;47.59;95612.88;1045291;28;1322;-59
2021/10/06 01:19:27;;;;;;;;;;;;;;;21.53;47.63;95615.50;1049690;28;1183;-57
2021/10/06 01:20:17;;;;;;;;;;;;;;;21.52;47.61;95613.13;1049339;28;1160;-59
2021/10/06 01:20:47;;;;;;;;;;;;;;;21.52;47.41;95610.50;1049719;28;1480;-58
2021/10/06 01:21:18;;;;;;;;;;;;;;;21.52;47.63;95621.03;1052014;28;1087;-59
2021/10/06 01:21:49;;;;;;;;;;;;;;;21.53;47.61;95622.63;1049349;28;1123;-59
2021/10/06 01:22:19;;;;;;;;;;;;;;;21.52;47.47;95619.19;1050963;28;1111;-59
2021/10/06 01:22:49;;;;;;;;;;;;;;;21.53;47.48;95625.25;1052325;28;1029;-59
2021/10/06 01:23:20;;;;;;;;;;;;;;;21.52;47.56;95619.19;1051893;28;2046;-59
2021/10/06 01:24:00;;;;;;;;;;;;;;;21.53;47.42;95620.00;1046986;28;1328;-58
2021/10/06 01:24:31;;;;;;;;;;;;;;;21.53;47.40;95620.00;1043518;28;2115;-59
2021/10/06 01:25:14;;;;;;;;;;;;;;;21.53;47.63;95620.00;1040020;28;1142;-59
2021/10/06 01:26:05;;;;;;;;;;;;;;;21.52;47.56;95621.84;1047352;28;2211;-57
2021/10/06 01:26:56;;;;;;;;;;;;;;;21.52;47.47;95621.84;1051381;28;1201;-59
2021/10/06 01:27:34;;;;;;;;;;;;;;;21.52;47.62;95616.56;1053502;28;1084;-59
2021/10/06 01:28:05;;;;;;;;;;;;;;;21.52;47.62;95624.47;1048813;28;1363;-59
2021/10/06 01:28:37;;;;;;;;;;;;;;;21.51;47.36;95622.13;1046071;28;1154;-58
2021/10/06 01:29:07;;;;;;;;;;;;;;;21.52;47.49;95618.41;1050344;28;1132;-59
2021/10/06 01:29:37;;;;;;;;;;;;;;;21.51;47.54;95622.91;1051409;28;1994;-59
2021/10/06 01:30:08;;;;;;;;;;;;;;;21.51;47.35;95622.91;1052296;28;926;-57
2021/10/06 01:30:39;;;;;;;;;;;;;;;21.52;47.68;95621.03;1053232;28;922;-57
2021/10/06 01:31:09;;;;;;;;;;;;;;;21.51;47.40;95627.41;1050592;28;1203;-57
2021/10/06 01:31:39;;;;;;;;;;;;;;;21.51;47.74;95628.19;1049948;28;1917;-59
2021/10/06 01:32:10;;;;;;;;;;;;;;;21.53;47.64;95630.53;1053181;28;1103;-58
2021/10/06 01:32:41;;;;;;;;;;;;;;;21.52;47.54;95623.69;1050446;28;1675;-58
2021/10/06 01:33:12;;;;;;;;;;;;;;;21.52;47.67;95626.31;1049830;28;1165;-59
2021/10/06 01:33:42;;;;;;;;;;;;;;;21.52;47.75;95628.94;1046085;28;1494;-57
2021/10/06 01:34:12;;;;;;;;;;;;;;;21.51;47.65;95633.47;1048138;28;1959;-58
2021/10/06 01:34:43;;;;;;;;;;;;;;;21.51;47.33;95624.75;1051331;28;2308;-59
2021/10/06 01:35:14;;;;;;;;;;;;;;;21.52;47.49;95631.59;1052972;28;1231;-59
2021/10/06 01:35:44;;;;;;;;;;;;;;;21.50;47.61;95623.97;1053543;28;913;-57
2021/10/06 01:36:14;;;;;;;;;;;;;;;21.51;47.28;95628.19;1053515;28;1114;-57
2021/10/06 01:36:48;;;;;;;;;;;;;;;21.51;47.68;95630.03;1050178;28;1139;-57
2021/10/06 01:37:18;;;;;;;;;;;;;;;21.50;47.64;95626.59;1052587;28;1480;-58
2021/10/06 01:37:49;;;;;;;;;;;;;;;21.50;47.71;95625.81;1050623;28;1461;-58
2021/10/06 01:38:19;;;;;;;;;;;;;;;21.49;47.63;95625.06;1052544;28;1129;-59
2021/10/06 01:38:49;;;;;;;;;;;;;;;21.51;47.56;95632.69;1053570;28;1096;-55
2021/10/06 01:39:20;;;;;;;;;;;;;;;21.49;47.65;95622.41;1053326;28;1188;-57
2021/10/06 01:39:50;;;;;;;;;;;;;;;21.50;47.65;95623.19;1052135;28;1976;-58
2021/10/06 01:40:22;;;;;;;;;;;;;;;21.50;47.42;95623.97;1053443;28;1177;-58
2021/10/06 01:40:53;;;;;;;;;;;;;;;21.49;47.48;95624.25;1053444;28;1047;-58
2021/10/06 01:41:23;;;;;;;;;;;;;;;21.49;47.77;95619.78;1047569;28;1394;-55
2021/10/06 01:41:53;;;;;;;;;;;;;;;21.49;47.44;95619.78;1053020;28;1052;-56
2021/10/06 01:42:23;;;;;;;;;;;;;;;21.50;47.56;95625.81;1056038;28;1083;-56
2021/10/06 01:42:54;;;;;;;;;;;;;;;21.49;47.65;95629.53;1054180;28;1262;-58
2021/10/06 01:43:24;;;;;;;;;;;;;;;21.49;47.70;95625.06;1052074;28;1099;-56
2021/10/06 01:43:54;;;;;;;;;;;;;;;21.49;47.35;95621.63;1053548;28;1106;-59
2021/10/06 01:44:25;;;;;;;;;;;;;;;21.50;47.51;95633.72;1052603;28;1129;-57
2021/10/06 01:44:55;;;;;;;;;;;;;;;21.50;47.42;95629.25;1051587;28;2004;-58
2021/10/06 01:45:26;;;;;;;;;;;;;;;21.49;47.50;95630.31;1053071;28;1173;-53
2021/10/06 01:45:57;;;;;;;;;;;;;;;21.50;47.66;95636.38;1053335;28;1079;-58
2021/10/06 01:46:27;;;;;;;;;;;;;;;21.49;47.49;95629.53;1050543;28;1150;-58
2021/10/06 01:46:57;;;;;;;;;;;;;;;21.50;47.32;95629.25;1051549;28;1044;-56
2021/10/06 01:47:28;;;;;;;;;;;;;;;21.50;47.53;95625.81;1053122;28;1150;-58
2021/10/06 01:48:05;;;;;;;;;;;;;;;21.50;47.35;95631.88;1049780;28;1410;-53
2021/10/06 01:48:35;;;;;;;;;;;;;;;21.50;47.26;95625.81;1049560;28;1303;-58
2021/10/06 01:49:05;;;;;;;;;;;;;;;21.49;47.51;95632.97;1053128;28;1147;-58
2021/10/06 01:49:36;;;;;;;;;;;;;;;21.49;47.63;95634.81;1051831;28;1109;-58
2021/10/06 01:50:06;;;;;;;;;;;;;;;21.50;47.50;95629.25;1049520;28;2142;-56
2021/10/06 01:50:42;;;;;;;;;;;;;;;21.49;47.59;95624.25;1053507;28;966;-58
2021/10/06 01:51:13;;;;;;;;;;;;;;;21.49;47.62;95625.06;1050888;28;1469;-58
2021/10/06 01:51:44;;;;;;;;;;;;;;;21.49;47.64;95626.91;1049216;28;2144;-56
2021/10/06 01:52:18;;;;;;;;;;;;;;;21.49;47.52;95624.25;1048352;28;1354;-57
2021/10/06 01:52:48;;;;;;;;;;;;;;;21.49;47.62;95629.53;1048696;28;1630;-56
2021/10/06 01:53:19;;;;;;;;;;;;;;;21.48;47.65;95623.47;1048135;28;1184;-59
2021/10/06 01:53:49;;;;;;;;;;;;;;;21.49;47.21;95635.59;1048868;28;1136;-57
2021/10/06 01:54:20;;;;;;;;;;;;;;;21.49;47.74;95632.16;1052671;28;1108;-58
2021/10/06 01:54:52;;;;;;;;;;;;;;;21.49;47.58;95624.25;1049175;28;2349;-58
2021/10/06 01:55:30;;;;;;;;;;;;;;;21.50;47.53;95633.72;1053406;28;1202;-56
2021/10/06 01:56:00;;;;;;;;;;;;;;;21.50;47.34;95631.88;1051949;28;1083;-56
2021/10/06 01:56:33;;;;;;;;;;;;;;;21.49;47.62;95630.31;1051861;28;929;-58
2021/10/06 01:57:03;;;;;;;;;;;;;;;21.49;47.61;95629.53;1052160;28;1052;-56
2021/10/06 01:57:34;;;;;;;;;;;;;;;21.48;47.46;95628.75;1052970;28;1106;-58
2021/10/06 01:58:05;;;;;;;;;;;;;;;21.48;47.24;95626.09;1052100;28;1280;-57
2021/10/06 01:58:35;;;;;;;;;;;;;;;21.48;47.58;95625.31;1053335;28;824;-57
2021/10/06 01:59:06;;;;;;;;;;;;;;;21.48;47.59;95628.75;1053258;28;1068;-58
2021/10/06 01:59:36;;;;;;;;;;;;;;;21.48;47.62;95622.66;1049500;28;1664;-57
2021/10/06 02:00:07;;;;;;;;;;;;;;;21.49;47.51;95629.53;1049574;28;2412;-59
2021/10/06 02:00:37;;;;;;;;;;;;;;;21.48;47.48;95628.75;1053760;28;831;-57
2021/10/06 02:01:08;;;;;;;;;;;;;;;21.48;47.63;95634.00;1051362;28;1071;-56
2021/10/06 02:01:38;;;;;;;;;;;;;;;21.47;47.66;95621.91;1051202;28;1118;-58
2021/10/06 02:02:08;;;;;;;;;;;;;;;21.48;47.67;95627.94;1050182;28;1294;-58
2021/10/06 02:02:39;;;;;;;;;;;;;;;21.47;47.53;95627.19;1050141;28;1201;-59
2021/10/06 02:03:09;;;;;;;;;;;;;;;21.47;47.39;95631.66;1052982;28;1131;-57
2021/10/06 02:03:39;;;;;;;;;;;;;;;21.47;47.56;95626.41;1053932;28;981;-55
2021/10/06 02:04:09;;;;;;;;;;;;;;;21.48;47.43;95630.59;1053257;28;1178;-57
2021/10/06 02:04:40;;;;;;;;;;;;;;;21.47;47.53;95631.66;1052585;28;1910;-58
2021/10/06 02:05:10;;;;;;;;;;;;;;;21.47;47.59;95627.19;1050382;28;2329;-56
2021/10/06 02:05:40;;;;;;;;;;;;;;;21.47;47.67;95627.19;1050418;28;2006;-53
2021/10/06 02:06:11;;;;;;;;;;;;;;;21.47;47.71;95624.53;1053398;28;1170;-55
2021/10/06 02:06:41;;;;;;;;;;;;;;;21.47;47.45;95626.41;1051320;28;1065;-58
2021/10/06 02:07:12;;;;;;;;;;;;;;;21.47;47.63;95626.41;1051126;28;1345;-57
2021/10/06 02:07:42;;;;;;;;;;;;;;;21.47;47.63;95621.13;1049266;28;1438;-58
2021/10/06 02:08:16;;;;;;;;;;;;;;;21.48;47.79;95631.38;1051683;28;1197;-55
2021/10/06 02:08:47;;;;;;;;;;;;;;;21.47;47.44;95626.41;1053108;28;954;-58
2021/10/06 02:09:17;;;;;;;;;;;;;;;21.47;47.73;95629.81;1052182;28;1055;-57
2021/10/06 02:09:47;;;;;;;;;;;;;;;21.47;47.64;95623.75;1052356;28;2004;-57
2021/10/06 02:10:18;;;;;;;;;;;;;;;21.46;47.67;95628.25;1051921;28;1061;-59
2021/10/06 02:10:48;;;;;;;;;;;;;;;21.46;47.44;95627.44;1051715;28;1181;-57
2021/10/06 02:11:18;;;;;;;;;;;;;;;21.46;47.50;95630.09;1052812;28;1177;-58
2021/10/06 02:11:49;;;;;;;;;;;;;;;21.46;47.61;95628.25;1050188;28;1656;-58
2021/10/06 02:12:19;;;;;;;;;;;;;;;21.46;47.69;95640.63;1051039;28;1122;-58
2021/10/06 02:12:49;;;;;;;;;;;;;;;21.46;47.52;95627.44;1050634;28;1033;-58
2021/10/06 02:13:20;;;;;;;;;;;;;;;21.46;47.44;95640.63;1051288;28;1165;-58
2021/10/06 02:13:50;;;;;;;;;;;;;;;21.46;47.59;95628.25;1049958;28;1115;-58
2021/10/06 02:14:20;;;;;;;;;;;;;;;21.46;47.65;95636.16;1051306;28;1079;-58
2021/10/06 02:14:51;;;;;;;;;;;;;;;21.47;47.50;95631.66;1051491;28;2112;-57
2021/10/06 02:15:21;;;;;;;;;;;;;;;21.47;47.53;95634.31;1052481;28;1055;-56
2021/10/06 02:15:51;;;;;;;;;;;;;;;21.47;47.49;95634.31;1051146;28;1248;-58
2021/10/06 02:16:22;;;;;;;;;;;;;;;21.46;47.70;95628.25;1050939;28;1837;-57
2021/10/06 02:16:53;;;;;;;;;;;;;;;21.46;47.36;95636.16;1050996;28;1060;-58
2021/10/06 02:17:23;;;;;;;;;;;;;;;21.46;47.14;95630.88;1050466;28;1127;-56
2021/10/06 02:17:53;;;;;;;;;;;;;;;21.48;47.13;95627.94;1048914;28;1754;-55
2021/10/06 02:18:24;;;;;;;;;;;;;;;21.46;47.60;95630.88;1051434;28;1991;-56
2021/10/06 02:18:54;;;;;;;;;;;;;;;21.46;47.20;95630.09;1053378;28;1137;-57
2021/10/06 02:19:24;;;;;;;;;;;;;;;21.46;47.58;95630.09;1053555;28;1118;-57
2021/10/06 02:19:55;;;;;;;;;;;;;;;21.46;47.53;95630.09;1052234;28;1047;-56
2021/10/06 02:20:25;;;;;;;;;;;;;;;21.46;47.47;95640.63;1051657;28;1167;-58
2021/10/06 02:20:56;;;;;;;;;;;;;;;21.44;47.29;95635.66;1050957;28;1068;-57
2021/10/06 02:21:26;;;;;;;;;;;;;;;21.45;47.58;95633.81;1051111;28;2026;-58
2021/10/06 02:21:57;;;;;;;;;;;;;;;21.45;47.53;95634.56;1047341;28;1425;-56
2021/10/06 02:22:27;;;;;;;;;;;;;;;21.45;47.31;95628.53;1048768;28;1110;-56
2021/10/06 02:22:59;;;;;;;;;;;;;;;21.46;47.66;95640.63;1048538;28;1026;-56
2021/10/06 02:23:29;;;;;;;;;;;;;;;21.46;47.35;95640.63;1049291;28;1135;-57
2021/10/06 02:23:59;;;;;;;;;;;;;;;21.45;47.36;95636.44;1052492;28;1193;-57
2021/10/06 02:24:29;;;;;;;;;;;;;;;21.46;47.40;95640.63;1052923;28;1901;-56
2021/10/06 02:25:00;;;;;;;;;;;;;;;21.45;47.23;95639.06;1052293;28;1289;-59
2021/10/06 02:25:30;;;;;;;;;;;;;;;21.46;47.25;95640.63;1050727;28;1022;-56
2021/10/06 02:26:01;;;;;;;;;;;;;;;21.45;47.50;95636.44;1051803;28;1026;-58
2021/10/06 02:26:33;;;;;;;;;;;;;;;21.45;47.61;95639.06;1050975;28;2032;-57
2021/10/06 02:27:03;;;;;;;;;;;;;;;21.46;47.47;95640.63;1049681;28;2445;-58
2021/10/06 02:27:34;;;;;;;;;;;;;;;21.45;47.25;95639.06;1049139;28;817;-58
2021/10/06 02:28:04;;;;;;;;;;;;;;;21.45;47.30;95639.84;1051958;28;1385;-57
2021/10/06 02:28:34;;;;;;;;;;;;;;;21.45;47.50;95639.84;1051989;28;1212;-57
2021/10/06 02:29:05;;;;;;;;;;;;;;;21.45;47.30;95639.06;1052623;28;1143;-58
2021/10/06 02:29:35;;;;;;;;;;;;;;;21.44;47.55;95637.50;1050801;28;1807;-59
2021/10/06 02:30:05;;;;;;;;;;;;;;;21.44;47.45;95635.66;1052542;28;1189;-57
2021/10/06 02:30:36;;;;;;;;;;;;;;;21.44;47.54;95640.91;1049204;28;1297;-56
2021/10/06 02:31:06;;;;;;;;;;;;;;;21.44;47.65;95642.75;1048341;28;1041;-56
2021/10/06 02:31:37;;;;;;;;;;;;;;;21.44;47.69;95637.50;1046991;28;1942;-58
2021/10/06 02:32:07;;;;;;;;;;;;;;;21.44;47.57;95646.19;1048660;28;1235;-58
2021/10/06 02:32:38;;;;;;;;;;;;;;;21.44;47.46;95642.75;1052086;28;981;-57
2021/10/06 02:33:08;;;;;;;;;;;;;;;21.45;47.53;95647.00;1052799;28;1056;-59
2021/10/06 02:33:38;;;;;;;;;;;;;;;21.43;47.49;95644.59;1050355;28;1174;-58
2021/10/06 02:34:09;;;;;;;;;;;;;;;21.44;47.46;95640.13;1048725;28;1369;-58
2021/10/06 02:34:39;;;;;;;;;;;;;;;21.44;47.61;95645.41;1047985;28;1158;-57
2021/10/06 02:35:09;;;;;;;;;;;;;;;21.44;47.50;95640.91;1048069;28;1092;-57
2021/10/06 02:35:40;;;;;;;;;;;;;;;21.44;47.72;95640.13;1053314;28;955;-57
2021/10/06 02:36:10;;;;;;;;;;;;;;;21.44;47.62;95640.13;1053661;28;980;-56
2021/10/06 02:36:41;;;;;;;;;;;;;;;21.44;47.58;95642.75;1048348;28;2119;-59
2021/10/06 02:37:11;;;;;;;;;;;;;;;21.44;47.36;95634.84;1049963;28;2348;-54
2021/10/06 02:37:41;;;;;;;;;;;;;;;21.43;47.15;95634.06;1053018;28;1086;-56
2021/10/06 02:38:12;;;;;;;;;;;;;;;21.44;47.58;95640.13;1053586;28;1272;-55
2021/10/06 02:38:42;;;;;;;;;;;;;;;21.44;47.52;95648.03;1049610;28;1149;-54
2021/10/06 02:39:12;;;;;;;;;;;;;;;21.44;47.53;95648.84;1053575;28;1129;-57
2021/10/06 02:39:43;;;;;;;;;;;;;;;21.43;47.61;95647.25;1053235;28;1052;-57
2021/10/06 02:40:13;;;;;;;;;;;;;;;21.43;47.66;95641.22;1051625;28;1161;-57
2021/10/06 02:40:44;;;;;;;;;;;;;;;21.42;47.46;95640.41;1049900;28;1072;-55
2021/10/06 02:41:14;;;;;;;;;;;;;;;21.43;47.59;95635.94;1053548;28;1078;-58
2021/10/06 02:41:44;;;;;;;;;;;;;;;21.43;47.48;95641.22;1049981;28;2300;-57
2021/10/06 02:42:15;;;;;;;;;;;;;;;21.43;47.49;95639.34;1054853;28;1126;-59
2021/10/06 02:42:45;;;;;;;;;;;;;;;21.42;47.54;95639.63;1050484;28;1408;-58
2021/10/06 02:43:16;;;;;;;;;;;;;;;21.41;47.47;95636.19;1049630;28;1326;-58
2021/10/06 02:43:46;;;;;;;;;;;;;;;21.43;47.39;95638.56;1050012;28;1041;-56
2021/10/06 02:44:16;;;;;;;;;;;;;;;21.42;47.63;95639.63;1052829;28;1756;-55
2021/10/06 02:44:46;;;;;;;;;;;;;;;21.41;47.47;95636.19;1050828;28;1981;-58